Time;durP1;ratioP1;P1;durP2;ratioP2;P2;SDS_P1;SDS_P2;PMS_P1;PMS_P2;Temp;Humidity;BMP_temperature;BMP_pressure;BME280_temperature;BME280_humidity;BME280_pressure;Samples;Min_cycle;Max_cycle;Signal;HPM_P1;HPM_P2
2021/09/28 00:00:42;;;;;;;3.55;2.67;;;17.10;91.80;;;;;;5016503;28;20048;-87
2021/09/28 00:03:07;;;;;;;2.78;2.50;;;17.10;91.80;;;;;;5017259;28;20489;-86
2021/09/28 00:05:34;;;;;;;2.55;2.35;;;17.10;91.80;;;;;;5018931;28;20223;-84
2021/09/28 00:07:59;;;;;;;3.10;2.30;;;17.10;91.80;;;;;;5018079;28;20017;-86
2021/09/28 00:10:25;;;;;;;3.25;2.95;;;17.20;91.80;;;;;;5014334;28;20539;-85
2021/09/28 00:12:51;;;;;;;3.88;3.17;;;17.20;91.80;;;;;;5031775;28;20044;-85
2021/09/28 00:15:18;;;;;;;2.83;2.63;;;17.20;91.80;;;;;;5018993;28;20068;-84
2021/09/28 00:17:44;;;;;;;2.67;2.30;;;17.20;91.90;;;;;;5010273;28;20021;-86
2021/09/28 00:20:11;;;;;;;1.73;1.63;;;17.10;91.80;;;;;;5016566;28;20067;-86
2021/09/28 00:22:36;;;;;;;2.42;1.38;;;17.00;91.80;;;;;;5035321;28;20570;-86
2021/09/28 00:25:04;;;;;;;0.70;0.70;;;16.90;91.90;;;;;;5038995;28;20116;-87
2021/09/28 00:27:30;;;;;;;0.85;0.52;;;16.70;92.00;;;;;;5038314;28;20022;-86
2021/09/28 00:29:56;;;;;;;0.40;0.40;;;16.70;92.10;;;;;;5021068;28;20397;-87
2021/09/28 00:32:22;;;;;;;0.30;0.30;;;16.60;92.10;;;;;;5020608;28;20486;-86
2021/09/28 00:34:47;;;;;;;0.28;0.28;;;16.40;92.10;;;;;;5018938;28;20031;-85
2021/09/28 00:37:13;;;;;;;0.20;0.20;;;16.30;92.20;;;;;;5020283;28;20059;-87
2021/09/28 00:39:39;;;;;;;0.85;0.35;;;16.10;92.20;;;;;;5037865;28;20085;-87
2021/09/28 00:42:05;;;;;;;0.32;0.30;;;16.00;92.30;;;;;;5019377;28;20022;-85
2021/09/28 00:44:46;;;;;;;0.20;0.20;;;16.00;92.40;;;;;;5018702;28;20029;-86
2021/09/28 00:47:13;;;;;;;0.20;0.20;;;15.90;92.50;;;;;;5018245;28;20055;-85
2021/09/28 00:49:40;;;;;;;0.95;0.30;;;15.80;92.40;;;;;;5010670;28;20067;-86
2021/09/28 00:52:07;;;;;;;0.65;0.30;;;15.80;92.50;;;;;;5014194;28;20026;-86
2021/09/28 00:54:33;;;;;;;0.20;0.20;;;15.80;92.50;;;;;;5013935;28;20029;-87
2021/09/28 00:56:59;;;;;;;0.25;0.22;;;15.70;92.50;;;;;;5015452;28;20040;-85
2021/09/28 00:59:24;;;;;;;0.45;0.35;;;15.80;92.50;;;;;;5019174;28;20481;-86
2021/09/28 01:01:52;;;;;;;0.93;0.20;;;15.70;92.50;;;;;;5018456;28;20117;-86
2021/09/28 01:04:17;;;;;;;0.43;0.30;;;15.70;92.40;;;;;;5035223;28;20029;-84
2021/09/28 01:06:44;;;;;;;2.03;0.32;;;15.70;92.40;;;;;;5035035;28;20441;-86
2021/09/28 01:09:11;;;;;;;0.20;0.20;;;15.60;92.30;;;;;;5016291;28;20025;-84
2021/09/28 01:11:40;;;;;;;0.57;0.20;;;15.60;92.20;;;;;;5018487;28;20125;-86
2021/09/28 01:14:09;;;;;;;1.08;0.20;;;15.50;92.20;;;;;;5018072;28;20021;-85
2021/09/28 01:16:35;;;;;;;0.63;0.20;;;15.40;92.30;;;;;;5017723;28;20029;-85
2021/09/28 01:19:00;;;;;;;0.20;0.20;;;15.40;92.20;;;;;;5015553;28;20544;-87
2021/09/28 01:21:26;;;;;;;0.30;0.30;;;15.30;92.20;;;;;;5016709;28;20112;-86
2021/09/28 01:23:52;;;;;;;0.63;0.38;;;15.30;92.30;;;;;;5027974;28;20025;-86
2021/09/28 01:26:24;;;;;;;0.57;0.40;;;15.30;92.40;;;;;;5008787;28;20477;-87
2021/09/28 01:28:54;;;;;;;1.05;0.35;;;15.30;92.30;;;;;;5031700;28;20056;-83
2021/09/28 01:31:21;;;;;;;0.68;0.30;;;15.30;92.40;;;;;;5048999;28;20048;-84
2021/09/28 01:33:46;;;;;;;0.40;0.40;;;15.20;92.30;;;;;;5018541;28;20389;-87
2021/09/28 01:36:13;;;;;;;0.45;0.30;;;15.10;92.40;;;;;;5010938;28;20033;-85
2021/09/28 01:38:39;;;;;;;0.30;0.30;;;15.10;92.60;;;;;;5007848;28;20084;-86
2021/09/28 01:41:04;;;;;;;2.17;0.40;;;15.10;92.50;;;;;;5032427;28;20034;-85
2021/09/28 01:43:30;;;;;;;0.20;0.20;;;15.00;92.50;;;;;;5012547;28;20030;-85
2021/09/28 01:46:02;;;;;;;0.20;0.20;;;15.00;92.50;;;;;;5013371;28;20094;-84
2021/09/28 01:49:07;;;;;;;1.27;0.38;;;15.00;92.60;;;;;;5013045;28;20108;-85
2021/09/28 01:51:33;;;;;;;0.30;0.30;;;14.90;92.70;;;;;;4934561;29;20036;-85
2021/09/28 01:53:59;;;;;;;0.50;0.30;;;14.90;92.50;;;;;;4947263;29;20028;-85
2021/09/28 01:56:26;;;;;;;1.88;0.30;;;14.80;92.60;;;;;;4979845;28;20045;-86
2021/09/28 01:58:54;;;;;;;0.38;0.38;;;14.70;92.70;;;;;;5011928;28;20516;-86
2021/09/28 02:01:19;;;;;;;0.57;0.40;;;14.70;92.80;;;;;;5009782;28;20076;-86
2021/09/28 02:03:45;;;;;;;0.70;0.32;;;14.70;92.80;;;;;;5004670;28;20101;-86
2021/09/28 02:06:12;;;;;;;1.63;0.50;;;14.70;93.00;;;;;;4998435;28;20026;-84
2021/09/28 02:08:38;;;;;;;0.40;0.40;;;14.70;93.00;;;;;;5008296;28;20096;-86
2021/09/28 02:11:04;;;;;;;0.63;0.60;;;14.70;93.00;;;;;;5017038;28;20536;-85
2021/09/28 02:13:29;;;;;;;1.23;0.55;;;14.60;92.80;;;;;;5030125;28;20033;-86
2021/09/28 02:15:55;;;;;;;0.85;0.60;;;14.60;92.90;;;;;;5011167;28;20441;-86
2021/09/28 02:18:21;;;;;;;2.63;0.70;;;14.50;93.00;;;;;;5013102;28;20033;-85
2021/09/28 02:20:46;;;;;;;0.65;0.65;;;14.40;92.90;;;;;;5009719;28;20025;-83
2021/09/28 02:23:12;;;;;;;1.40;0.70;;;14.40;93.10;;;;;;5014525;28;20091;-87
2021/09/28 02:25:38;;;;;;;1.42;0.93;;;14.40;93.10;;;;;;5015849;28;20021;-85
2021/09/28 02:28:04;;;;;;;1.30;0.90;;;14.30;93.20;;;;;;5007158;28;20163;-85
2021/09/28 02:30:29;;;;;;;0.90;0.80;;;14.30;93.20;;;;;;5013637;28;20484;-85
2021/09/28 02:32:55;;;;;;;1.42;1.10;;;14.30;93.20;;;;;;5008479;28;20053;-86
2021/09/28 02:35:21;;;;;;;1.58;1.15;;;14.20;93.10;;;;;;5009081;28;20057;-86
2021/09/28 02:37:47;;;;;;;2.17;1.10;;;14.20;93.10;;;;;;5026905;28;20029;-86
2021/09/28 02:40:13;;;;;;;1.70;1.30;;;14.20;93.30;;;;;;5032376;28;20076;-85
2021/09/28 02:42:39;;;;;;;1.83;1.25;;;14.10;93.40;;;;;;5015200;28;20112;-84
2021/09/28 02:45:05;;;;;;;1.70;1.55;;;14.10;93.50;;;;;;5010278;28;20060;-86
2021/09/28 02:47:31;;;;;;;5.05;1.65;;;14.10;93.40;;;;;;5006233;28;20087;-86
2021/09/28 02:49:56;;;;;;;3.13;1.30;;;14.20;93.50;;;;;;5013788;28;20022;-86
2021/09/28 02:52:22;;;;;;;1.67;1.58;;;14.20;93.40;;;;;;5014941;28;20048;-85
2021/09/28 02:54:48;;;;;;;3.42;1.60;;;14.20;93.50;;;;;;5013582;28;20088;-86
2021/09/28 02:57:14;;;;;;;2.83;1.75;;;14.20;93.50;;;;;;5013180;28;20128;-86
2021/09/28 02:59:40;;;;;;;1.80;1.70;;;14.20;93.60;;;;;;5016397;28;20049;-84
2021/09/28 03:02:05;;;;;;;3.85;1.75;;;14.30;93.70;;;;;;5017557;28;20041;-86
2021/09/28 03:04:31;;;;;;;2.00;1.90;;;14.30;93.90;;;;;;5019661;28;20037;-87
2021/09/28 03:06:57;;;;;;;2.28;2.00;;;14.30;93.70;;;;;;5013282;28;20059;-85
2021/09/28 03:09:22;;;;;;;3.70;2.22;;;14.40;93.60;;;;;;5017135;28;20063;-86
2021/09/28 03:11:48;;;;;;;2.90;2.28;;;14.40;93.60;;;;;;5023740;28;20048;-86
2021/09/28 03:14:14;;;;;;;2.67;1.73;;;14.40;93.60;;;;;;5020466;28;20060;-86
2021/09/28 03:16:39;;;;;;;2.30;2.08;;;14.40;93.60;;;;;;5038380;28;20032;-85
2021/09/28 03:19:05;;;;;;;5.28;2.50;;;14.40;93.60;;;;;;5021378;28;20033;-85
2021/09/28 03:21:31;;;;;;;6.03;2.17;;;14.50;93.50;;;;;;5039238;28;20029;-86
2021/09/28 03:23:56;;;;;;;3.47;2.00;;;14.50;93.50;;;;;;5013008;28;20093;-86
2021/09/28 03:26:22;;;;;;;3.05;2.20;;;14.40;93.50;;;;;;5036413;28;20030;-86
2021/09/28 03:28:48;;;;;;;2.30;2.08;;;14.40;93.30;;;;;;5018133;28;20059;-87
2021/09/28 03:31:13;;;;;;;4.90;2.13;;;14.30;93.30;;;;;;5019536;28;20044;-85
2021/09/28 03:33:39;;;;;;;4.18;2.47;;;14.30;93.50;;;;;;5016413;28;20559;-86
2021/09/28 03:36:05;;;;;;;3.40;2.30;;;14.30;93.50;;;;;;5009732;28;20041;-85
2021/09/28 03:38:31;;;;;;;3.17;2.40;;;14.30;93.40;;;;;;5009859;28;20029;-86
2021/09/28 03:40:56;;;;;;;3.47;2.70;;;14.20;93.40;;;;;;5036205;28;20485;-84
2021/09/28 03:43:22;;;;;;;2.72;2.38;;;14.20;93.40;;;;;;5034171;28;20396;-86
2021/09/28 03:45:48;;;;;;;4.30;2.53;;;14.20;93.50;;;;;;5024765;28;20022;-85
2021/09/28 03:48:14;;;;;;;4.25;2.80;;;14.10;93.40;;;;;;5028010;28;20204;-87
2021/09/28 03:50:40;;;;;;;5.53;2.80;;;14.10;93.40;;;;;;5039375;28;20017;-87
2021/09/28 03:53:06;;;;;;;3.97;2.70;;;14.00;93.40;;;;;;5023637;28;20496;-87
2021/09/28 03:55:32;;;;;;;4.55;2.45;;;14.00;93.50;;;;;;5012696;28;20025;-88
2021/09/28 03:58:01;;;;;;;3.40;3.10;;;14.00;93.40;;;;;;5012068;28;20029;-86
2021/09/28 04:00:27;;;;;;;6.35;3.58;;;13.90;93.50;;;;;;5014962;28;20071;-86
2021/09/28 04:02:52;;;;;;;8.55;4.35;;;13.90;93.60;;;;;;5013328;28;20068;-85
2021/09/28 04:05:18;;;;;;;7.68;5.97;;;13.90;93.60;;;;;;5036864;28;20455;-86
2021/09/28 04:07:43;;;;;;;8.82;6.13;;;13.90;93.60;;;;;;5017373;28;20017;-87
2021/09/28 04:10:10;;;;;;;10.32;6.50;;;13.90;93.50;;;;;;5018360;28;20034;-86
2021/09/28 04:12:36;;;;;;;8.48;6.15;;;13.80;93.40;;;;;;5031550;28;20030;-85
2021/09/28 04:15:04;;;;;;;7.25;6.28;;;13.80;93.50;;;;;;5016581;28;20042;-86
2021/09/28 04:17:29;;;;;;;7.68;6.50;;;13.80;93.60;;;;;;5031857;28;20087;-85
2021/09/28 04:19:55;;;;;;;7.90;6.25;;;13.80;93.50;;;;;;5031598;28;20033;-85
2021/09/28 04:22:22;;;;;;;9.77;5.93;;;13.80;93.60;;;;;;5014941;28;20036;-86
2021/09/28 04:24:49;;;;;;;11.95;7.13;;;13.80;93.60;;;;;;5014219;28;20040;-85
2021/09/28 04:27:16;;;;;;;9.00;6.50;;;13.80;93.50;;;;;;5014680;28;20467;-86
2021/09/28 04:29:42;;;;;;;6.70;6.00;;;13.90;93.50;;;;;;5015746;28;20049;-84
2021/09/28 04:32:09;;;;;;;8.48;5.72;;;13.80;93.50;;;;;;5017312;28;20076;-87
2021/09/28 04:34:35;;;;;;;9.98;6.47;;;13.80;93.50;;;;;;5015013;28;20112;-84
2021/09/28 04:37:01;;;;;;;10.68;5.80;;;13.80;93.50;;;;;;5030435;28;20033;-85
2021/09/28 04:39:27;;;;;;;11.55;6.32;;;13.80;93.60;;;;;;5035356;28;20021;-85
2021/09/28 04:41:52;;;;;;;7.57;6.30;;;13.80;93.60;;;;;;5033534;28;20057;-86
2021/09/28 04:44:18;;;;;;;8.75;6.18;;;13.80;93.50;;;;;;5015475;28;20026;-87
2021/09/28 04:46:44;;;;;;;10.05;6.10;;;13.80;93.50;;;;;;5029314;28;20077;-88
2021/09/28 05:43:39;;;;;;;8.65;5.45;;;13.60;93.40;;;;;;1293175;22;21593;-91
2021/09/28 05:46:08;;;;;;;10.05;5.82;;;13.60;93.50;;;;;;4991523;28;20042;-88
2021/09/28 05:48:34;;;;;;;9.82;5.22;;;13.60;93.40;;;;;;4989506;28;20108;-89
2021/09/28 05:51:28;;;;;;;8.43;5.60;;;13.70;93.50;;;;;;5008156;28;20046;-89
2021/09/28 05:53:54;;;;;;;8.68;5.60;;;13.70;93.50;;;;;;4990575;28;20478;-89
2021/09/28 05:56:23;;;;;;;9.52;6.18;;;13.70;93.40;;;;;;4991100;28;20466;-89
2021/09/28 05:58:49;;;;;;;11.07;6.82;;;13.80;93.50;;;;;;5004525;28;20591;-90
2021/09/28 06:01:15;;;;;;;11.18;6.60;;;13.80;93.30;;;;;;4992490;28;20026;-90
2021/09/28 06:03:43;;;;;;;9.02;6.57;;;13.80;93.30;;;;;;4987859;28;20037;-90
2021/09/28 06:06:09;;;;;;;9.48;6.50;;;13.80;93.30;;;;;;4988662;28;20444;-89
2021/09/28 06:08:35;;;;;;;11.18;6.97;;;13.70;93.10;;;;;;4987903;28;20092;-88
2021/09/28 06:11:02;;;;;;;10.30;7.22;;;13.70;93.20;;;;;;4993128;28;20056;-89
2021/09/28 06:13:27;;;;;;;9.85;7.07;;;13.60;93.30;;;;;;4990775;28;20030;-88
2021/09/28 06:15:53;;;;;;;9.55;6.55;;;13.60;93.30;;;;;;4991355;28;20028;-88
2021/09/28 06:18:20;;;;;;;13.13;7.32;;;13.60;93.30;;;;;;4988797;28;20026;-88
2021/09/28 06:20:46;;;;;;;8.52;6.97;;;13.70;93.40;;;;;;4987359;28;20029;-89
2021/09/28 06:23:12;;;;;;;8.48;6.97;;;13.70;93.50;;;;;;4991767;28;20448;-91
2021/09/28 06:25:38;;;;;;;12.25;7.32;;;13.70;93.20;;;;;;4990578;28;20018;-90
2021/09/28 06:28:04;;;;;;;12.50;7.22;;;13.60;93.20;;;;;;5011045;28;20426;-88
2021/09/28 06:30:30;;;;;;;9.57;6.95;;;13.70;93.30;;;;;;4994532;28;20029;-88
2021/09/28 06:32:56;;;;;;;12.52;7.57;;;13.70;93.30;;;;;;4995211;28;20087;-89
2021/09/28 06:35:23;;;;;;;11.60;7.15;;;13.70;93.30;;;;;;4986416;28;20447;-88
2021/09/28 06:37:48;;;;;;;10.88;6.90;;;13.80;93.20;;;;;;4987998;28;20022;-89
2021/09/28 06:40:14;;;;;;;10.70;7.18;;;13.80;93.20;;;;;;4982628;28;20029;-89
2021/09/28 06:42:40;;;;;;;11.35;6.90;;;13.80;93.20;;;;;;4986094;28;20025;-89
2021/09/28 06:45:06;;;;;;;11.10;6.95;;;13.80;93.40;;;;;;4980431;28;20044;-89
2021/09/28 06:47:32;;;;;;;9.02;6.03;;;13.80;93.20;;;;;;4991461;28;20395;-89
2021/09/28 06:49:57;;;;;;;12.85;6.50;;;13.70;93.10;;;;;;4994449;28;20021;-89
2021/09/28 06:52:23;;;;;;;9.18;6.68;;;13.70;93.10;;;;;;5000146;28;20022;-89
2021/09/28 06:54:49;;;;;;;9.55;6.68;;;13.70;93.10;;;;;;5001143;28;20433;-89
2021/09/28 06:57:14;;;;;;;11.05;7.03;;;13.80;93.20;;;;;;4986069;28;20022;-89
2021/09/28 06:59:40;;;;;;;10.52;6.68;;;13.80;93.20;;;;;;4981937;28;20117;-89
2021/09/28 07:02:06;;;;;;;12.55;6.57;;;13.80;93.10;;;;;;4992281;28;20558;-88
2021/09/28 07:04:32;;;;;;;7.57;5.85;;;13.80;93.00;;;;;;4993802;28;20098;-90
2021/09/28 07:06:59;;;;;;;8.43;5.97;;;13.90;93.10;;;;;;4992540;28;20030;-89
2021/09/28 07:09:33;;;;;;;12.80;6.30;;;13.90;93.10;;;;;;4994403;28;20493;-91
2021/09/28 07:12:01;;;;;;;7.40;6.13;;;13.90;93.20;;;;;;4988474;28;20022;-91
2021/09/28 07:14:26;;;;;;;8.45;5.65;;;13.90;93.10;;;;;;4989286;28;20026;-89
2021/09/28 07:16:52;;;;;;;12.57;6.22;;;14.00;93.20;;;;;;4993765;28;20352;-89
2021/09/28 07:19:18;;;;;;;10.82;5.95;;;14.10;93.10;;;;;;4988809;28;20137;-89
2021/09/28 07:21:43;;;;;;;7.80;6.38;;;14.30;93.00;;;;;;4982080;28;20073;-88
2021/09/28 07:24:10;;;;;;;5.78;5.00;;;14.40;92.90;;;;;;4989380;28;20034;-89
2021/09/28 07:26:35;;;;;;;9.90;5.97;;;14.50;92.80;;;;;;4993109;28;20437;-88
2021/09/28 07:29:01;;;;;;;9.40;5.60;;;14.60;92.80;;;;;;4993509;28;20049;-88
2021/09/28 07:31:27;;;;;;;10.45;6.18;;;14.60;92.80;;;;;;4989592;28;20022;-88
2021/09/28 07:33:56;;;;;;;11.30;6.50;;;14.70;92.90;;;;;;4978565;28;20061;-89
2021/09/28 07:36:22;;;;;;;9.32;5.18;;;14.80;92.80;;;;;;4973953;28;20045;-88
2021/09/28 07:38:47;;;;;;;8.02;4.32;;;15.30;92.60;;;;;;4980095;28;20018;-88
2021/09/28 07:41:13;;;;;;;8.73;4.28;;;15.80;92.30;;;;;;4981884;28;20034;-87
2021/09/28 07:43:39;;;;;;;8.25;4.00;;;16.50;91.60;;;;;;4987443;28;20031;-87
2021/09/28 07:46:04;;;;;;;8.05;3.95;;;16.60;91.20;;;;;;4974108;28;20030;-87
2021/09/28 07:48:31;;;;;;;6.00;3.88;;;16.60;90.90;;;;;;5006050;28;20092;-88
2021/09/28 07:50:59;;;;;;;6.97;4.15;;;16.40;91.10;;;;;;4996297;28;20022;-87
2021/09/28 07:53:25;;;;;;;8.85;3.92;;;16.20;91.10;;;;;;4995108;28;20030;-88
2021/09/28 07:55:51;;;;;;;7.95;4.03;;;16.10;91.20;;;;;;4990155;28;20040;-87
2021/09/28 07:58:16;;;;;;;9.20;4.25;;;15.90;91.00;;;;;;4992773;28;20036;-88
2021/09/28 08:00:42;;;;;;;7.50;4.10;;;15.80;91.20;;;;;;5008848;28;20029;-87
2021/09/28 08:03:09;;;;;;;6.57;4.50;;;15.70;91.20;;;;;;4995256;28;20030;-86
2021/09/28 08:05:35;;;;;;;6.57;3.90;;;15.70;91.10;;;;;;4995779;28;20026;-88
2021/09/28 08:08:00;;;;;;;5.60;4.30;;;15.70;91.20;;;;;;4984604;28;20110;-88
2021/09/28 08:10:26;;;;;;;6.10;5.05;;;15.80;91.30;;;;;;4978463;28;20070;-87
2021/09/28 08:12:52;;;;;;;8.05;4.47;;;15.90;91.20;;;;;;4994493;28;20511;-88
2021/09/28 08:15:17;;;;;;;9.95;4.82;;;16.00;91.10;;;;;;4997101;28;20034;-88
2021/09/28 08:17:43;;;;;;;13.63;4.97;;;16.00;91.00;;;;;;5013033;28;20421;-88
2021/09/28 08:20:10;;;;;;;7.05;4.47;;;16.00;90.90;;;;;;5011947;28;20029;-88
2021/09/28 08:22:38;;;;;;;10.40;4.10;;;16.10;91.00;;;;;;4991858;28;20034;-88
2021/09/28 08:25:08;;;;;;;9.77;4.68;;;16.20;90.90;;;;;;4996341;28;20052;-88
2021/09/28 08:30:18;;;;;;;9.40;5.30;;;16.20;90.70;;;;;;5014268;28;20029;-88
2021/09/28 08:32:44;;;;;;;10.60;6.32;;;16.20;90.70;;;;;;4988804;28;20646;-88
2021/09/28 08:35:10;;;;;;;10.20;5.90;;;16.10;90.50;;;;;;5015151;28;20094;-88
2021/09/28 08:37:35;;;;;;;11.60;6.50;;;16.20;90.50;;;;;;4992952;28;20167;-88
2021/09/28 08:40:01;;;;;;;9.57;6.03;;;16.30;90.60;;;;;;4989381;28;20065;-89
2021/09/28 08:42:26;;;;;;;10.43;5.40;;;16.60;90.70;;;;;;4998892;28;20022;-89
2021/09/28 08:44:52;;;;;;;9.63;5.28;;;16.70;90.40;;;;;;5005031;28;20079;-89
2021/09/28 08:47:40;;;;;;;7.95;5.75;;;16.80;90.40;;;;;;4997316;28;20030;-88
2021/09/28 08:50:10;;;;;;;9.23;4.90;;;16.80;90.10;;;;;;4990161;28;20022;-88
2021/09/28 08:52:44;;;;;;;9.30;5.05;;;16.80;90.10;;;;;;5012525;28;20032;-89
2021/09/28 08:55:11;;;;;;;8.93;5.22;;;16.80;89.80;;;;;;4988247;28;20028;-89
2021/09/28 08:57:38;;;;;;;13.52;5.15;;;16.90;89.90;;;;;;4995335;28;20437;-89
2021/09/28 09:00:21;;;;;;;10.00;5.20;;;16.80;89.60;;;;;;4993339;28;20025;-87
2021/09/28 09:02:47;;;;;;;;;;;16.90;89.50;;;;;;5012448;28;20033;-88
2021/09/28 09:05:14;;;;;;;7.68;4.93;;;16.90;89.80;;;;;;5009399;28;19960;-89
2021/09/28 09:08:05;;;;;;;6.53;5.10;;;17.00;89.30;;;;;;4994879;28;20036;-89
2021/09/28 09:10:33;;;;;;;9.43;5.25;;;16.90;88.60;;;;;;5015660;28;20022;-89
2021/09/28 09:13:03;;;;;;;10.18;5.47;;;16.80;89.00;;;;;;4996746;28;20467;-88
2021/09/28 09:15:31;;;;;;;12.10;4.60;;;16.70;88.70;;;;;;5013124;28;20370;-89
2021/09/28 09:18:01;;;;;;;7.22;5.22;;;16.70;88.60;;;;;;4995695;28;20129;-89
2021/09/28 09:20:33;;;;;;;12.70;4.90;;;16.60;88.50;;;;;;4998633;28;20493;-89
2021/09/28 09:23:22;;;;;;;13.80;5.45;;;16.70;88.20;;;;;;5003099;28;20031;-89
2021/09/28 09:26:04;;;;;;;12.60;5.22;;;16.70;88.10;;;;;;5010623;28;20058;-87
2021/09/28 09:28:32;;;;;;;8.17;4.33;;;16.90;88.40;;;;;;4996273;28;20029;-89
2021/09/28 09:31:12;;;;;;;6.60;3.90;;;17.10;88.10;;;;;;4995628;28;20030;-89
2021/09/28 09:33:39;;;;;;;7.55;4.15;;;17.40;87.50;;;;;;4987098;28;20026;-89
2021/09/28 09:36:05;;;;;;;19.38;9.25;;;17.60;87.20;;;;;;4995482;28;20316;-89
2021/09/28 09:38:43;;;;;;;7.10;3.70;;;17.70;87.30;;;;;;4996259;28;20052;-90
2021/09/28 09:41:09;;;;;;;8.55;3.97;;;17.80;86.30;;;;;;4996158;28;20022;-91
2021/09/28 09:43:35;;;;;;;6.85;4.10;;;17.90;86.10;;;;;;4995316;28;20080;-90
2021/09/28 09:46:17;;;;;;;8.50;4.20;;;17.90;85.40;;;;;;4984554;28;20044;-90
2021/09/28 09:48:44;;;;;;;6.82;3.97;;;17.70;84.90;;;;;;4987203;28;20032;-89
2021/09/28 09:51:15;;;;;;;5.18;3.08;;;17.50;84.60;;;;;;5018020;28;20030;-89
2021/09/28 09:53:59;;;;;;;4.15;3.22;;;17.30;84.40;;;;;;4999249;28;20046;-89
2021/09/28 09:56:46;;;;;;;8.68;3.83;;;17.30;84.60;;;;;;5001703;28;20023;-90
2021/09/28 09:59:13;;;;;;;6.00;2.97;;;17.40;84.20;;;;;;4997165;28;20109;-90
2021/09/28 10:01:39;;;;;;;4.95;2.45;;;17.60;84.60;;;;;;4994506;28;20022;-90
2021/09/28 10:04:10;;;;;;;4.88;2.50;;;17.80;84.20;;;;;;4989523;28;20034;-90
2021/09/28 10:06:39;;;;;;;4.18;2.60;;;17.90;83.40;;;;;;5007826;28;20417;-89
2021/09/28 10:09:30;;;;;;;28.50;17.35;;;17.90;82.90;;;;;;5015326;28;20639;-89
2021/09/28 10:12:10;;;;;;;7.40;3.42;;;17.90;82.80;;;;;;5015274;28;20409;-89
2021/09/28 10:15:08;;;;;;;5.63;3.20;;;17.80;81.80;;;;;;5002701;28;20108;-89
2021/09/28 10:17:41;;;;;;;8.65;3.00;;;17.80;82.40;;;;;;4977048;28;20109;-90
2021/09/28 10:20:08;;;;;;;4.32;2.80;;;17.90;82.00;;;;;;4991252;28;20486;-90
2021/09/28 10:22:56;;;;;;;6.72;2.78;;;18.10;82.40;;;;;;4987173;28;20054;-90
2021/09/28 10:25:30;;;;;;;10.30;3.67;;;18.20;81.50;;;;;;4980912;28;20030;-90
2021/09/28 10:28:05;;;;;;;7.15;3.53;;;18.50;82.20;;;;;;4994943;28;20028;-90
2021/09/28 10:30:46;;;;;;;8.98;3.60;;;18.70;81.20;;;;;;4994467;28;20030;-91
2021/09/28 10:33:14;;;;;;;5.85;3.40;;;18.80;81.20;;;;;;4992006;28;20113;-92
2021/09/28 10:36:08;;;;;;;6.70;3.45;;;19.10;80.70;;;;;;5005850;28;20036;-90
2021/09/28 10:38:45;;;;;;;4.63;2.83;;;19.20;79.50;;;;;;4996186;28;20105;-90
2021/09/28 10:41:30;;;;;;;5.00;3.08;;;19.30;79.50;;;;;;4991452;28;20026;-90
2021/09/28 10:44:47;;;;;;;;;;;;;;;;;;;;;
2021/09/28 10:52:20;;;;;;;5.32;3.10;;;19.20;78.70;;;;;;5002522;28;20050;-82
2021/09/28 10:55:11;;;;;;;5.50;2.92;;;19.10;78.00;;;;;;4992602;28;20114;-89
2021/09/28 10:58:22;;;;;;;9.20;3.05;;;19.10;77.20;;;;;;4981146;28;20058;-89
2021/09/28 11:00:48;;;;;;;5.30;2.10;;;18.90;77.70;;;;;;4977092;28;20503;-87
2021/09/28 11:03:15;;;;;;;3.53;1.92;;;19.00;78.50;;;;;;4986809;28;20491;-86
2021/09/28 11:05:54;;;;;;;4.70;1.98;;;19.20;77.60;;;;;;4970105;28;20054;-86
2021/09/28 11:08:52;;;;;;;4.28;2.00;;;19.30;76.40;;;;;;4968569;28;20014;-87
2021/09/28 11:11:24;;;;;;;8.77;2.60;;;19.30;75.30;;;;;;4956231;28;20118;-88
2021/09/28 11:13:50;;;;;;;2.90;1.80;;;19.40;75.30;;;;;;4988667;28;20046;-87
2021/09/28 11:16:22;;;;;;;5.47;2.38;;;19.40;75.40;;;;;;4982991;28;20033;-88
2021/09/28 11:18:56;;;;;;;4.50;2.30;;;19.60;75.50;;;;;;4973977;28;20049;-88
2021/09/28 11:21:24;;;;;;;3.70;2.22;;;19.70;74.70;;;;;;4979321;28;20065;-87
2021/09/28 11:23:53;;;;;;;5.80;2.35;;;19.80;75.20;;;;;;4990138;28;20034;-87
2021/09/28 11:26:33;;;;;;;4.97;1.95;;;19.80;74.90;;;;;;4977062;28;20026;-87
2021/09/28 11:28:59;;;;;;;4.50;1.90;;;19.90;74.40;;;;;;4977204;28;20490;-88
2021/09/28 11:31:38;;;;;;;5.55;2.30;;;19.90;74.40;;;;;;4995910;28;20101;-87
2021/09/28 11:34:03;;;;;;;2.78;1.98;;;19.80;73.60;;;;;;4993989;28;20085;-88
2021/09/28 11:36:41;;;;;;;6.28;2.20;;;19.70;74.00;;;;;;4996192;28;20010;-87
2021/09/28 11:39:13;;;;;;;4.75;1.83;;;19.60;73.40;;;;;;4986621;28;20038;-87
2021/09/28 11:41:42;;;;;;;14.85;9.07;;;19.60;73.60;;;;;;4978695;28;20026;-88
2021/09/28 11:44:08;;;;;;;5.38;2.00;;;19.40;73.80;;;;;;4978280;28;20382;-88
2021/09/28 11:46:35;;;;;;;4.57;1.90;;;19.30;73.50;;;;;;4992409;28;20065;-87
2021/09/28 11:49:07;;;;;;;4.75;1.75;;;19.50;73.60;;;;;;4979497;28;20063;-87
2021/09/28 11:51:34;;;;;;;3.38;1.77;;;19.60;73.30;;;;;;4968507;28;20030;-87
2021/09/28 11:54:02;;;;;;;3.70;1.45;;;19.50;72.80;;;;;;5012199;28;20034;-87
2021/09/28 11:56:34;;;;;;;3.47;1.48;;;19.40;72.20;;;;;;4974402;28;20030;-88
2021/09/28 11:59:00;;;;;;;3.20;1.35;;;19.30;72.10;;;;;;4982603;28;20085;-88
2021/09/28 12:01:27;;;;;;;1.77;1.42;;;19.30;72.30;;;;;;4977168;28;20026;-87
2021/09/28 12:09:26;;;;;;;1.98;1.10;;;19.00;71.80;;;;;;4994243;28;20105;-87
2021/09/28 12:12:05;;;;;;;3.67;1.40;;;19.00;71.90;;;;;;4995701;28;20037;-86
2021/09/28 12:14:45;;;;;;;3.05;1.23;;;19.10;71.40;;;;;;4993595;28;20022;-86
2021/09/28 12:17:11;;;;;;;3.78;1.73;;;19.20;71.90;;;;;;4979068;28;20026;-90
2021/09/28 12:19:38;;;;;;;4.47;1.70;;;19.30;71.60;;;;;;5000622;28;20019;-90
2021/09/28 12:22:14;;;;;;;4.10;1.63;;;19.40;71.00;;;;;;4979155;28;20487;-89
2021/09/28 12:25:26;;;;;;;;;;;;;;;;;;;;;
2021/09/28 12:31:38;;;;;;;4.63;1.58;;;19.60;70.70;;;;;;4981526;28;19913;-88
2021/09/28 12:34:16;;;;;;;3.05;1.40;;;19.60;69.90;;;;;;4997960;28;20041;-90
2021/09/28 12:37:04;;;;;;;2.25;1.05;;;19.60;69.80;;;;;;4978599;28;20124;-89
2021/09/28 12:40:29;;;;;;;1.90;1.13;;;19.90;69.70;;;;;;4991855;28;20022;-87
2021/09/28 12:43:40;;;;;;;2.25;1.42;;;20.10;68.50;;;;;;4963787;28;20034;-89
2021/09/28 12:46:30;;;;;;;2.25;1.27;;;20.40;68.20;;;;;;4971510;28;20065;-86
2021/09/28 12:49:28;;;;;;;;;;;;;;;;;;;;;
2021/09/28 12:52:18;;;;;;;2.85;1.20;;;20.60;67.20;;;;;;4960240;28;20049;-89
2021/09/28 12:54:48;;;;;;;5.95;1.60;;;20.80;67.20;;;;;;4967209;28;20060;-88
2021/09/28 12:57:38;;;;;;;3.60;1.30;;;20.90;68.10;;;;;;4978264;28;20089;-89
2021/09/28 13:00:20;;;;;;;3.60;1.30;;;21.20;67.80;;;;;;4981633;28;20137;-89
2021/09/28 13:03:10;;;;;;;1.63;0.98;;;21.30;67.40;;;;;;4979238;28;20418;-91
2021/09/28 13:05:57;;;;;;;2.80;1.25;;;21.50;67.40;;;;;;4979081;28;20038;-90
2021/09/28 13:08:26;;;;;;;3.38;1.42;;;21.60;66.70;;;;;;4977036;28;20130;-90
2021/09/28 13:11:11;;;;;;;4.68;1.48;;;21.40;66.00;;;;;;4968898;28;20109;-90
2021/09/28 13:13:52;;;;;;;3.85;1.30;;;21.10;65.50;;;;;;4982928;28;20022;-90
2021/09/28 13:16:20;;;;;;;7.32;1.35;;;20.80;65.90;;;;;;4990619;28;20114;-85
2021/09/28 13:18:48;;;;;;;8.45;1.40;;;20.70;66.10;;;;;;4993827;28;20048;-83
2021/09/28 13:21:14;;;;;;;11.38;1.17;;;20.70;66.40;;;;;;4996235;28;20033;-86
2021/09/28 13:23:40;;;;;;;13.60;1.40;;;20.80;66.70;;;;;;4977240;28;20044;-89
2021/09/28 13:26:05;;;;;;;3.47;1.20;;;20.90;66.30;;;;;;4977684;28;20031;-88
2021/09/28 13:28:31;;;;;;;2.40;1.13;;;21.00;65.50;;;;;;4975963;28;20026;-89
2021/09/28 13:30:57;;;;;;;3.03;1.30;;;21.00;65.20;;;;;;4976526;28;20076;-89
2021/09/28 13:33:22;;;;;;;5.38;1.40;;;21.00;65.20;;;;;;4974952;28;20030;-89
2021/09/28 13:35:48;;;;;;;3.00;1.30;;;21.00;65.20;;;;;;4975185;28;20779;-89
2021/09/28 13:38:13;;;;;;;2.72;1.20;;;21.10;65.40;;;;;;5000949;28;20061;-90
2021/09/28 13:40:39;;;;;;;4.15;1.30;;;21.30;65.90;;;;;;5000902;28;20030;-90
2021/09/28 13:43:05;;;;;;;4.43;1.48;;;21.40;65.10;;;;;;4972011;28;20399;-89
2021/09/28 13:45:31;;;;;;;2.50;1.52;;;21.40;64.40;;;;;;4976620;28;20040;-89
2021/09/28 13:47:57;;;;;;;3.60;1.25;;;21.30;63.70;;;;;;4980263;28;20026;-89
2021/09/28 13:50:22;;;;;;;4.03;1.30;;;21.20;63.60;;;;;;4988966;28;20034;-89
2021/09/28 13:52:51;;;;;;;6.18;1.27;;;21.10;64.20;;;;;;4982658;28;20037;-89
2021/09/28 13:55:30;;;;;;;4.22;1.30;;;21.20;64.00;;;;;;4975255;28;20018;-89
2021/09/28 13:58:24;;;;;;;2.25;1.40;;;21.20;63.60;;;;;;4971924;28;20030;-89
2021/09/28 14:00:59;;;;;;;6.65;2.55;;;21.00;63.00;;;;;;4972098;28;20027;-88
2021/09/28 14:03:39;;;;;;;4.00;1.50;;;20.90;63.30;;;;;;4974739;28;20038;-88
2021/09/28 14:06:17;;;;;;;3.38;1.85;;;20.80;62.90;;;;;;4969753;28;20038;-88
2021/09/28 14:09:15;;;;;;;2.92;1.33;;;20.60;62.80;;;;;;4968516;28;20046;-88
2021/09/28 14:11:49;;;;;;;3.65;1.55;;;20.40;62.30;;;;;;4979685;28;20117;-89
2021/09/28 14:14:50;;;;;;;;;;;;;;;;;;;;;
2021/09/28 14:17:35;;;;;;;1.80;1.30;;;20.10;62.80;;;;;;4987630;28;20816;-88